Time;durP1;ratioP1;P1;durP2;ratioP2;P2;SDS_P1;SDS_P2;PMS_P1;PMS_P2;Temp;Humidity;BMP_temperature;BMP_pressure;BME280_temperature;BME280_humidity;BME280_pressure;Samples;Min_cycle;Max_cycle;Signal;HPM_P1;HPM_P2
2022/01/24 00:02:01;;;;;;;8.73;6.30;;;7.50;99.90;;;;;;4900101;29;20470;-76
2022/01/24 00:04:26;;;;;;;8.67;6.30;;;7.50;99.90;;;;;;4897057;29;20472;-75
2022/01/24 00:06:52;;;;;;;8.17;5.63;;;7.50;99.90;;;;;;4903954;29;20973;-74
2022/01/24 00:09:18;;;;;;;6.90;6.00;;;7.50;99.90;;;;;;4913760;29;20627;-74
2022/01/24 00:14:46;;;;;;;7.17;5.50;;;7.60;99.90;;;;;;4900414;29;20181;-74
2022/01/24 00:27:23;;;;;;;7.97;5.57;;;7.60;99.90;;;;;;4900334;29;21000;-75
2022/01/24 00:29:49;;;;;;;6.60;5.47;;;7.50;99.90;;;;;;4906964;29;20453;-77
2022/01/24 00:32:17;;;;;;;7.83;6.07;;;7.50;99.90;;;;;;4915927;29;20227;-73
2022/01/24 00:34:42;;;;;;;7.70;5.93;;;7.50;99.90;;;;;;4899301;29;20197;-74
2022/01/24 00:37:08;;;;;;;7.87;5.53;;;7.50;99.90;;;;;;4898120;29;20496;-74
2022/01/24 00:39:37;;;;;;;6.67;5.40;;;7.50;99.90;;;;;;4901911;29;20189;-74
2022/01/24 00:42:30;;;;;;;7.00;5.67;;;7.50;99.90;;;;;;4899521;29;20219;-74
2022/01/24 00:45:11;;;;;;;7.40;5.70;;;7.50;99.90;;;;;;4902775;29;23601;-75
2022/01/24 00:53:29;;;;;;;7.80;6.73;;;7.40;99.90;;;;;;4903267;29;21022;-74
2022/01/24 00:55:55;;;;;;;7.50;6.00;;;7.40;99.90;;;;;;4901343;29;20478;-74
2022/01/24 00:58:23;;;;;;;7.70;6.37;;;7.40;99.90;;;;;;4901421;29;20477;-74
2022/01/24 01:00:58;;;;;;;9.70;6.33;;;7.40;99.90;;;;;;4898951;29;20225;-77
2022/01/24 01:03:27;;;;;;;8.27;6.07;;;7.40;99.90;;;;;;4901367;29;20453;-74
2022/01/24 01:06:06;;;;;;;7.70;6.20;;;7.40;99.90;;;;;;4899388;29;20449;-75
2022/01/24 01:19:40;;;;;;;8.10;6.90;;;7.30;99.90;;;;;;4900612;29;20448;-75
2022/01/24 01:22:06;;;;;;;8.60;6.70;;;7.40;99.90;;;;;;4899376;29;20537;-74
2022/01/24 01:24:37;;;;;;;10.07;7.40;;;7.40;99.90;;;;;;4898251;29;20542;-74
2022/01/24 01:27:13;;;;;;;8.43;7.03;;;7.40;99.90;;;;;;4892455;29;21259;-74
2022/01/24 01:30:16;;;;;;;10.47;7.70;;;7.40;99.90;;;;;;4903384;29;20781;-75
2022/01/24 01:32:58;;;;;;;11.13;8.03;;;7.30;99.90;;;;;;4897489;29;20528;-73
2022/01/24 01:56:32;;;;;;;6.57;5.80;;;7.30;99.90;;;;;;4901001;29;20988;-75
2022/01/24 01:58:57;;;;;;;5.40;4.90;;;7.30;99.90;;;;;;4900374;29;20465;-75
2022/01/24 02:01:23;;;;;;;7.10;6.40;;;7.30;99.90;;;;;;4914075;29;20469;-73
2022/01/24 02:03:50;;;;;;;6.87;5.50;;;7.20;99.90;;;;;;4898452;29;20426;-73
2022/01/24 02:06:16;;;;;;;7.53;5.90;;;7.20;99.90;;;;;;4901992;29;20203;-74
2022/01/24 02:08:42;;;;;;;7.00;5.90;;;7.30;99.90;;;;;;4907920;29;20483;-77
2022/01/24 02:11:11;;;;;;;7.87;5.77;;;7.30;99.90;;;;;;4901948;29;20229;-76
2022/01/24 02:13:37;;;;;;;8.23;6.00;;;7.30;99.90;;;;;;4899581;29;20544;-76
2022/01/24 02:16:20;;;;;;;7.83;6.20;;;7.30;99.90;;;;;;4900923;29;20579;-74
2022/01/24 02:23:57;;;;;;;9.17;6.13;;;7.30;99.90;;;;;;4901468;29;20500;-74
2022/01/24 02:26:22;;;;;;;8.63;6.30;;;7.30;99.90;;;;;;4901389;29;20445;-75
2022/01/24 02:29:15;;;;;;;7.27;6.10;;;7.30;99.90;;;;;;4901715;29;20476;-74
2022/01/24 02:31:49;;;;;;;7.63;6.50;;;7.30;99.90;;;;;;4898411;29;20359;-75
2022/01/24 02:34:27;;;;;;;7.80;6.60;;;7.20;99.90;;;;;;4898007;29;20449;-74
2022/01/24 02:36:56;;;;;;;8.50;6.83;;;7.20;99.90;;;;;;4900450;29;20466;-74
2022/01/24 02:50:06;;;;;;;7.70;6.10;;;7.20;99.90;;;;;;4902106;29;20464;-74
2022/01/24 02:52:32;;;;;;;9.73;6.40;;;7.10;99.90;;;;;;4899504;29;20953;-74
2022/01/24 02:54:57;;;;;;;7.97;5.93;;;7.10;99.90;;;;;;4901090;29;20473;-75
2022/01/24 02:57:23;;;;;;;6.40;5.60;;;7.10;99.90;;;;;;4899433;29;20285;-74
2022/01/24 02:59:48;;;;;;;6.93;5.93;;;7.00;99.90;;;;;;4900317;29;20197;-74
2022/01/24 03:02:16;;;;;;;9.40;6.40;;;7.10;99.90;;;;;;4896322;29;20225;-74
2022/01/24 03:04:42;;;;;;;8.93;6.83;;;7.10;99.90;;;;;;4902038;29;20223;-77
2022/01/24 03:07:08;;;;;;;7.90;6.40;;;7.10;99.90;;;;;;4894423;29;20575;-74
2022/01/24 03:09:34;;;;;;;7.80;5.63;;;7.00;99.90;;;;;;4904277;29;20236;-75
2022/01/24 03:12:13;;;;;;;7.30;5.80;;;7.10;99.90;;;;;;4897255;29;20225;-74
2022/01/24 03:14:41;;;;;;;6.03;5.20;;;7.10;99.90;;;;;;4896880;29;20992;-74
2022/01/24 03:17:07;;;;;;;8.73;6.40;;;7.10;99.90;;;;;;4898271;29;20462;-74
2022/01/24 03:19:33;;;;;;;7.10;5.43;;;7.00;99.90;;;;;;4901357;29;20449;-74
2022/01/24 03:22:04;;;;;;;6.83;5.90;;;7.00;99.90;;;;;;4891322;29;21089;-74
2022/01/24 03:24:30;;;;;;;6.50;5.20;;;7.00;99.90;;;;;;4901227;29;20449;-74
2022/01/24 03:26:55;;;;;;;6.33;5.47;;;6.90;99.90;;;;;;4898102;29;20472;-75
2022/01/24 03:29:21;;;;;;;6.80;5.50;;;7.00;99.90;;;;;;4915315;29;20686;-74
2022/01/24 03:31:46;;;;;;;6.87;5.00;;;7.00;99.90;;;;;;4899251;29;20710;-73
2022/01/24 03:34:13;;;;;;;6.83;5.30;;;7.00;99.90;;;;;;4899576;29;20193;-74
2022/01/24 03:36:42;;;;;;;6.67;5.73;;;7.00;99.90;;;;;;4909180;29;20704;-75
2022/01/24 03:39:11;;;;;;;7.60;5.50;;;7.00;99.90;;;;;;4896546;29;20461;-76
2022/01/24 03:41:39;;;;;;;6.40;5.10;;;7.00;99.90;;;;;;4891192;29;20509;-74
2022/01/24 03:44:06;;;;;;;5.97;5.20;;;7.00;99.90;;;;;;4898126;29;20449;-76
2022/01/24 03:46:48;;;;;;;6.23;5.20;;;7.00;99.90;;;;;;4902154;29;20518;-74
2022/01/24 03:49:45;;;;;;;5.50;4.73;;;7.00;99.90;;;;;;4914539;29;20818;-74
2022/01/24 03:52:00;;;;;;;5.50;4.90;;;7.00;99.90;;;;;;4887969;29;21039;-74
2022/01/24 03:54:25;;;;;;;5.93;5.07;;;7.00;99.90;;;;;;4904287;29;20818;-74
2022/01/24 03:56:51;;;;;;;9.50;5.40;;;7.00;99.90;;;;;;4898413;29;20496;-74
2022/01/24 03:59:16;;;;;;;5.77;4.60;;;7.10;99.90;;;;;;4901546;29;20189;-74
2022/01/24 04:01:42;;;;;;;6.50;5.00;;;7.00;99.90;;;;;;4898027;29;20229;-74
2022/01/24 04:04:07;;;;;;;7.87;5.87;;;7.00;99.90;;;;;;4901376;29;20259;-74
2022/01/24 04:06:33;;;;;;;7.80;5.00;;;6.90;99.90;;;;;;4895397;29;20256;-74
2022/01/24 04:08:58;;;;;;;7.00;5.60;;;6.90;99.90;;;;;;4899493;29;20232;-74
2022/01/24 04:11:32;;;;;;;8.27;5.37;;;6.90;99.90;;;;;;4886462;29;20736;-74
2022/01/24 04:14:11;;;;;;;7.77;5.30;;;6.90;99.90;;;;;;4898928;29;20185;-74
2022/01/24 04:16:41;;;;;;;7.70;5.67;;;6.90;99.90;;;;;;4901726;29;20479;-74
2022/01/24 04:21:17;;;;;;;9.93;6.90;;;6.90;99.90;;;;;;4913498;29;20833;-73
2022/01/24 04:21:57;;;;;;;8.60;6.23;;;6.90;99.90;;;;;;4900246;29;20553;-74
2022/01/24 04:24:24;;;;;;;6.87;5.77;;;6.80;99.90;;;;;;4900116;29;20953;-74
2022/01/24 04:26:50;;;;;;;7.40;5.60;;;6.80;99.90;;;;;;4896008;29;20193;-74
2022/01/24 04:29:20;;;;;;;7.67;6.13;;;6.80;99.90;;;;;;4911625;29;20448;-75
2022/01/24 04:31:46;;;;;;;10.27;6.40;;;6.80;99.90;;;;;;4912657;29;20741;-74
2022/01/24 04:34:12;;;;;;;8.10;6.10;;;6.80;99.90;;;;;;4911609;29;20461;-75
2022/01/24 04:36:37;;;;;;;6.50;5.27;;;6.70;99.90;;;;;;4912760;29;20239;-74
2022/01/24 04:39:04;;;;;;;7.60;5.53;;;6.70;99.90;;;;;;4913715;29;20219;-74
2022/01/24 04:41:36;;;;;;;7.63;5.27;;;6.80;99.90;;;;;;4912184;29;20225;-75
2022/01/24 04:52:08;;;;;;;10.37;6.70;;;6.80;99.90;;;;;;4901463;29;20971;-73
2022/01/24 04:54:44;;;;;;;8.03;5.63;;;6.60;99.90;;;;;;4900317;29;20463;-74
2022/01/24 04:57:22;;;;;;;7.97;6.17;;;6.70;99.90;;;;;;4896545;29;20477;-74
2022/01/24 04:59:54;;;;;;;10.63;6.20;;;6.70;99.90;;;;;;4895502;29;20481;-74
2022/01/24 05:02:25;;;;;;;7.70;5.70;;;6.70;99.90;;;;;;4902476;29;20537;-75
2022/01/24 05:04:52;;;;;;;8.00;6.13;;;6.70;99.90;;;;;;4888977;29;20547;-74
2022/01/24 05:07:17;;;;;;;9.40;6.30;;;6.70;99.90;;;;;;4899605;29;20555;-74
2022/01/24 05:09:51;;;;;;;8.30;6.53;;;6.70;99.90;;;;;;4896558;29;20461;-74
2022/01/24 05:12:31;;;;;;;10.60;6.63;;;6.70;99.90;;;;;;4902818;29;20276;-74
2022/01/24 05:25:55;;;;;;;10.33;7.30;;;6.60;99.90;;;;;;4908489;29;21030;-75
2022/01/24 05:28:21;;;;;;;9.70;6.23;;;6.60;99.90;;;;;;4902668;29;20807;-75
2022/01/24 05:30:55;;;;;;;10.37;6.43;;;6.60;99.90;;;;;;4906437;29;20514;-74
2022/01/24 05:33:21;;;;;;;8.53;5.80;;;6.60;99.90;;;;;;4901649;29;20968;-75
2022/01/24 05:35:49;;;;;;;9.63;6.77;;;6.60;99.90;;;;;;4891529;29;20513;-76
2022/01/24 05:38:15;;;;;;;8.10;7.03;;;6.60;99.90;;;;;;4898578;29;20480;-74
2022/01/24 05:40:45;;;;;;;9.17;6.23;;;6.70;99.90;;;;;;4899690;29;20468;-75
2022/01/24 05:43:11;;;;;;;9.60;7.00;;;6.70;99.90;;;;;;4886035;29;20204;-74
2022/01/24 05:45:36;;;;;;;9.43;7.00;;;6.70;99.90;;;;;;4896844;29;20504;-74
2022/01/24 05:48:02;;;;;;;9.37;6.83;;;6.60;99.90;;;;;;4902613;29;20477;-74
2022/01/24 05:50:28;;;;;;;12.03;7.70;;;6.70;99.90;;;;;;4901022;29;20231;-74
2022/01/24 05:52:56;;;;;;;11.43;7.97;;;6.70;99.90;;;;;;4901595;29;20204;-74
2022/01/24 05:55:22;;;;;;;9.77;7.53;;;6.60;99.90;;;;;;4898440;29;20308;-75
2022/01/24 05:57:47;;;;;;;10.03;7.10;;;6.60;99.90;;;;;;4902945;29;20620;-74
2022/01/24 06:00:13;;;;;;;10.43;7.53;;;6.70;99.90;;;;;;4899228;29;20681;-74
2022/01/24 06:02:42;;;;;;;12.20;8.30;;;6.70;99.90;;;;;;4871601;29;20243;-77
2022/01/24 06:05:08;;;;;;;9.63;7.57;;;6.80;99.90;;;;;;4899810;29;20464;-73
2022/01/24 06:07:34;;;;;;;11.20;7.87;;;6.60;99.90;;;;;;4897407;29;20481;-74
2022/01/24 06:09:59;;;;;;;11.50;7.67;;;6.60;99.90;;;;;;4896657;29;20462;-74
2022/01/24 06:12:26;;;;;;;10.73;7.23;;;6.60;99.90;;;;;;4897895;29;20233;-74
2022/01/24 06:14:51;;;;;;;11.70;8.20;;;6.60;99.90;;;;;;4893432;29;20201;-75
2022/01/24 06:17:17;;;;;;;9.73;7.53;;;6.70;99.90;;;;;;4888743;29;20509;-74
2022/01/24 06:19:44;;;;;;;11.03;7.40;;;6.70;99.90;;;;;;4902383;29;20663;-74
2022/01/24 06:22:09;;;;;;;12.40;8.63;;;6.60;99.90;;;;;;4899993;29;20237;-74
2022/01/24 06:24:39;;;;;;;11.17;7.87;;;6.70;99.90;;;;;;4902956;29;20472;-74
2022/01/24 06:27:05;;;;;;;13.60;8.63;;;6.50;99.90;;;;;;4898599;29;20463;-75
2022/01/24 06:29:30;;;;;;;13.43;9.13;;;6.70;99.90;;;;;;4894499;29;20213;-76
2022/01/24 06:31:56;;;;;;;16.40;9.03;;;6.70;99.90;;;;;;4892149;29;20951;-73
2022/01/24 06:34:21;;;;;;;15.67;8.70;;;6.70;99.90;;;;;;4897282;29;20209;-75
2022/01/24 06:36:47;;;;;;;12.90;8.20;;;6.70;99.90;;;;;;4893924;29;20253;-73
2022/01/24 06:39:14;;;;;;;13.30;8.80;;;6.70;99.90;;;;;;4895664;29;20676;-75
2022/01/24 06:41:42;;;;;;;15.10;8.90;;;6.70;99.90;;;;;;4893922;29;20258;-73
2022/01/24 06:44:08;;;;;;;16.90;11.23;;;6.70;99.90;;;;;;4886695;29;20561;-75
2022/01/24 06:46:34;;;;;;;22.03;12.97;;;6.70;99.90;;;;;;4877025;29;20611;-76
2022/01/24 06:49:00;;;;;;;18.33;10.87;;;6.70;99.90;;;;;;4880744;29;20500;-74
2022/01/24 06:51:26;;;;;;;20.50;12.53;;;6.70;99.90;;;;;;4899212;29;20478;-74
2022/01/24 06:53:52;;;;;;;16.57;9.87;;;6.70;99.90;;;;;;4901914;29;20215;-75
2022/01/24 06:56:19;;;;;;;16.03;10.80;;;6.70;99.90;;;;;;4872916;29;20567;-74
2022/01/24 06:58:44;;;;;;;17.60;11.30;;;6.70;99.90;;;;;;4899153;29;20504;-74
2022/01/24 07:01:10;;;;;;;15.33;10.20;;;6.70;99.90;;;;;;4892433;29;20508;-74
2022/01/24 07:03:36;;;;;;;13.67;8.93;;;6.70;99.90;;;;;;4882529;29;20197;-74
2022/01/24 07:06:02;;;;;;;12.13;8.80;;;6.70;99.90;;;;;;4883593;29;20192;-74
2022/01/24 07:08:28;;;;;;;13.77;8.87;;;6.70;99.90;;;;;;4898541;29;20299;-73
2022/01/24 07:10:53;;;;;;;14.07;8.63;;;6.70;99.90;;;;;;4899076;29;20488;-73
2022/01/24 07:13:21;;;;;;;13.70;7.97;;;6.70;99.90;;;;;;4898454;29;20197;-74
2022/01/24 07:15:52;;;;;;;12.60;9.27;;;6.70;99.90;;;;;;4901172;29;20448;-74
2022/01/24 07:18:57;;;;;;;13.00;8.80;;;6.70;99.90;;;;;;4906713;29;20501;-74
2022/01/24 07:21:05;;;;;;;12.03;8.83;;;6.70;99.90;;;;;;4891295;29;20580;-74
2022/01/24 07:23:31;;;;;;;12.63;8.67;;;6.70;99.90;;;;;;4915319;29;20659;-73
2022/01/24 07:25:57;;;;;;;14.77;10.13;;;6.70;99.90;;;;;;4900708;29;20468;-74
2022/01/24 07:28:22;;;;;;;16.80;10.90;;;6.70;99.90;;;;;;4904989;29;20489;-74
2022/01/24 07:30:48;;;;;;;21.17;12.27;;;6.70;99.90;;;;;;4910568;29;20707;-75
2022/01/24 07:33:16;;;;;;;16.93;10.30;;;6.70;99.90;;;;;;4898463;29;20224;-75
2022/01/24 07:35:44;;;;;;;17.70;11.27;;;6.70;99.90;;;;;;4901596;29;20243;-74
2022/01/24 07:38:11;;;;;;;19.10;11.27;;;6.70;99.90;;;;;;4901279;29;20469;-74
2022/01/24 07:40:42;;;;;;;18.30;11.90;;;6.70;99.90;;;;;;4880257;29;20484;-74
2022/01/24 07:43:10;;;;;;;17.27;11.63;;;6.70;99.90;;;;;;4896591;29;20451;-74
2022/01/24 07:45:39;;;;;;;17.50;11.37;;;6.70;99.90;;;;;;4896695;29;20470;-74
2022/01/24 07:48:06;;;;;;;16.70;10.87;;;6.70;99.90;;;;;;4894474;29;20569;-74
2022/01/24 07:50:32;;;;;;;16.00;10.67;;;6.70;99.90;;;;;;4894681;29;20888;-74
2022/01/24 07:53:00;;;;;;;16.43;11.53;;;6.70;99.90;;;;;;4902289;29;20461;-76
2022/01/24 07:55:26;;;;;;;13.70;9.77;;;6.70;99.90;;;;;;4903049;29;20483;-74
2022/01/24 07:57:52;;;;;;;15.87;10.70;;;6.70;99.90;;;;;;4898824;29;20485;-75
2022/01/24 08:00:17;;;;;;;24.43;15.10;;;6.70;99.90;;;;;;4897750;29;20508;-75
2022/01/24 08:02:43;;;;;;;25.97;15.53;;;6.70;99.90;;;;;;4900463;29;20212;-74
2022/01/24 08:05:10;;;;;;;29.83;16.60;;;6.70;99.90;;;;;;4905248;29;20197;-74
2022/01/24 08:07:36;;;;;;;30.57;17.10;;;6.70;99.90;;;;;;4902065;29;20595;-74
2022/01/24 08:10:04;;;;;;;27.50;17.90;;;6.70;99.90;;;;;;4898518;29;20460;-74
2022/01/24 08:12:30;;;;;;;26.57;17.07;;;6.70;99.90;;;;;;4904727;29;20518;-74
2022/01/24 08:14:59;;;;;;;32.10;18.70;;;6.70;99.90;;;;;;4898398;29;20458;-75
2022/01/24 08:17:25;;;;;;;28.43;17.33;;;6.70;99.90;;;;;;4900213;29;20476;-74
2022/01/24 08:19:50;;;;;;;33.87;20.03;;;6.60;99.90;;;;;;4893849;29;20442;-74
2022/01/24 08:22:18;;;;;;;32.57;18.37;;;6.60;99.90;;;;;;4898517;29;20242;-74
2022/01/24 08:24:49;;;;;;;36.03;19.90;;;6.60;99.90;;;;;;4901937;29;20193;-74
2022/01/24 08:27:15;;;;;;;31.37;18.57;;;6.60;99.90;;;;;;4896335;29;20480;-74
2022/01/24 08:29:43;;;;;;;32.50;19.03;;;6.60;99.90;;;;;;4901623;29;20490;-74
2022/01/24 08:32:09;;;;;;;30.60;18.37;;;6.60;99.90;;;;;;4897510;29;20478;-75
2022/01/24 08:34:35;;;;;;;32.87;19.00;;;6.70;99.90;;;;;;4898836;29;20458;-74
2022/01/24 08:37:01;;;;;;;32.53;19.63;;;6.70;99.90;;;;;;4908031;29;20489;-75
2022/01/24 08:39:26;;;;;;;30.43;18.47;;;6.70;99.90;;;;;;4894017;29;20619;-75
2022/01/24 08:46:46;;;;;;;29.97;18.40;;;6.70;99.90;;;;;;4901233;29;20198;-74
2022/01/24 08:49:11;;;;;;;33.07;18.40;;;6.70;99.90;;;;;;4895357;29;20474;-74
2022/01/24 08:51:37;;;;;;;37.47;20.10;;;6.70;99.90;;;;;;4895843;29;20537;-74
2022/01/24 08:54:04;;;;;;;29.20;18.37;;;6.70;99.90;;;;;;4896075;29;20204;-74
2022/01/24 08:56:29;;;;;;;33.47;20.40;;;6.70;99.90;;;;;;4894474;29;20459;-75
2022/01/24 08:58:55;;;;;;;36.27;20.43;;;6.70;99.90;;;;;;4876433;29;20480;-75
2022/01/24 09:01:21;;;;;;;33.97;20.27;;;6.70;99.90;;;;;;4894971;29;20606;-74
2022/01/24 09:03:46;;;;;;;33.17;19.57;;;6.70;99.90;;;;;;4895888;29;20192;-74
2022/01/24 09:06:17;;;;;;;34.27;19.90;;;6.70;99.90;;;;;;4897922;29;20233;-75
2022/01/24 09:08:44;;;;;;;33.57;19.20;;;6.80;99.90;;;;;;4884536;29;20220;-74
2022/01/24 09:11:10;;;;;;;34.57;19.80;;;6.80;99.90;;;;;;4895096;29;20891;-75
2022/01/24 09:13:36;;;;;;;34.67;20.63;;;6.70;99.90;;;;;;4898508;29;20509;-74
2022/01/24 09:16:02;;;;;;;34.80;19.77;;;6.70;99.90;;;;;;4896896;29;20555;-75
2022/01/24 09:18:29;;;;;;;33.80;20.30;;;6.70;99.90;;;;;;4894602;29;20480;-74
2022/01/24 09:20:56;;;;;;;34.67;21.00;;;6.70;99.90;;;;;;4896167;29;20476;-75
2022/01/24 09:23:22;;;;;;;36.53;22.00;;;6.70;99.90;;;;;;4896858;29;20449;-75
2022/01/24 09:25:50;;;;;;;36.17;20.40;;;6.70;99.90;;;;;;4892740;29;20515;-76
2022/01/24 09:28:16;;;;;;;31.27;19.77;;;6.80;99.90;;;;;;4895428;29;20468;-74
2022/01/24 09:30:42;;;;;;;40.03;22.97;;;6.80;99.90;;;;;;4896325;29;21084;-75
2022/01/24 09:33:11;;;;;;;35.70;21.20;;;6.80;99.90;;;;;;4894957;29;20480;-75
2022/01/24 09:35:38;;;;;;;31.03;18.77;;;6.80;99.90;;;;;;4888831;29;20468;-75
2022/01/24 09:38:05;;;;;;;34.20;20.23;;;6.80;99.90;;;;;;4895241;29;20953;-75
2022/01/24 09:40:32;;;;;;;33.00;19.97;;;6.70;99.90;;;;;;4893609;29;20477;-75
2022/01/24 09:42:58;;;;;;;39.33;22.40;;;6.70;99.90;;;;;;4896528;29;20776;-74
2022/01/24 09:45:25;;;;;;;36.83;22.10;;;6.70;99.90;;;;;;4892503;29;20501;-75
2022/01/24 09:47:53;;;;;;;40.00;22.33;;;6.80;99.90;;;;;;4912280;29;20574;-75
2022/01/24 09:50:19;;;;;;;35.07;21.17;;;6.80;99.90;;;;;;4898689;29;21016;-74
2022/01/24 09:52:46;;;;;;;35.13;22.30;;;6.80;99.90;;;;;;4909890;29;21284;-74
2022/01/24 09:55:13;;;;;;;39.13;23.83;;;6.80;99.90;;;;;;4893041;29;20472;-74
2022/01/24 09:57:41;;;;;;;35.40;21.33;;;6.80;99.90;;;;;;4897546;29;20470;-74
2022/01/24 10:00:09;;;;;;;37.80;22.40;;;6.80;99.90;;;;;;4893944;29;20979;-74
2022/01/24 10:02:35;;;;;;;33.83;21.00;;;6.80;99.90;;;;;;4884164;29;20546;-75
2022/01/24 10:05:21;;;;;;;33.40;20.77;;;6.80;99.90;;;;;;4895164;29;20480;-74
2022/01/24 10:07:55;;;;;;;30.10;19.00;;;6.90;99.90;;;;;;4895506;29;20295;-74
2022/01/24 10:10:38;;;;;;;35.43;20.13;;;6.90;99.90;;;;;;4892925;29;20873;-74
2022/01/24 10:16:25;;;;;;;40.10;21.00;;;6.90;99.90;;;;;;4898591;29;20475;-74
2022/01/24 10:19:09;;;;;;;34.70;19.63;;;6.90;99.90;;;;;;4896047;29;20456;-74
2022/01/24 10:21:43;;;;;;;35.80;22.10;;;6.90;99.90;;;;;;4890016;29;21017;-75
2022/01/24 10:24:12;;;;;;;38.37;21.60;;;6.90;99.90;;;;;;4894511;29;20449;-75
2022/01/24 10:26:38;;;;;;;35.87;20.50;;;6.90;99.90;;;;;;4868110;29;20503;-75
2022/01/24 10:29:12;;;;;;;39.07;21.43;;;6.90;99.90;;;;;;4900149;29;20481;-74
2022/01/24 10:31:48;;;;;;;37.80;20.60;;;6.90;99.90;;;;;;4906021;29;20477;-75
2022/01/24 10:34:23;;;;;;;35.23;20.90;;;6.90;99.90;;;;;;4904191;29;20449;-74
2022/01/24 10:36:54;;;;;;;38.93;20.83;;;7.00;99.90;;;;;;4896627;29;20480;-75
2022/01/24 10:39:29;;;;;;;40.67;20.67;;;7.00;99.90;;;;;;4907090;29;20457;-74
2022/01/24 10:44:54;;;;;;;32.80;18.13;;;7.00;99.90;;;;;;4903566;29;20475;-75
2022/01/24 10:47:23;;;;;;;34.87;18.70;;;7.00;99.90;;;;;;4886398;29;20512;-74
2022/01/24 10:49:50;;;;;;;29.03;17.80;;;6.90;99.90;;;;;;4900436;29;20472;-74
2022/01/24 10:52:20;;;;;;;32.47;18.93;;;7.00;99.90;;;;;;4881312;29;20488;-74
2022/01/24 10:54:48;;;;;;;29.53;18.10;;;6.90;99.90;;;;;;4897481;29;20459;-74
2022/01/24 10:57:26;;;;;;;27.90;16.80;;;7.00;99.90;;;;;;4899473;29;20986;-75
2022/01/24 11:00:09;;;;;;;33.73;17.90;;;7.10;99.90;;;;;;4913959;29;20839;-74
2022/01/24 11:02:36;;;;;;;29.70;16.30;;;6.90;99.90;;;;;;4898755;29;20642;-75
2022/01/24 11:05:16;;;;;;;30.17;17.23;;;7.00;99.90;;;;;;4900655;29;20450;-75
2022/01/24 11:08:00;;;;;;;31.87;17.70;;;7.00;99.90;;;;;;4901899;29;20829;-75
2022/01/24 11:10:32;;;;;;;32.10;17.70;;;7.00;99.90;;;;;;4902056;29;20493;-75
2022/01/24 11:12:57;;;;;;;31.60;17.80;;;7.00;99.90;;;;;;4894380;29;20600;-75
2022/01/24 11:15:25;;;;;;;32.10;18.17;;;7.00;99.90;;;;;;4897876;29;20564;-75
2022/01/24 11:17:52;;;;;;;34.47;18.73;;;7.00;99.90;;;;;;4900388;29;20481;-74
2022/01/24 11:20:18;;;;;;;38.40;19.90;;;7.00;99.90;;;;;;4894848;29;20455;-75
2022/01/24 11:22:46;;;;;;;32.00;17.07;;;7.00;99.90;;;;;;4902575;29;20515;-74
2022/01/24 11:25:14;;;;;;;32.27;17.20;;;7.00;99.90;;;;;;4900799;29;20453;-75
2022/01/24 11:27:42;;;;;;;31.70;19.33;;;7.00;99.90;;;;;;4898993;29;20466;-74
2022/01/24 11:30:44;;;;;;;31.93;16.83;;;7.10;99.90;;;;;;4888427;29;20445;-75
2022/01/24 11:33:22;;;;;;;33.83;18.73;;;7.00;99.90;;;;;;4896065;29;20457;-75
2022/01/24 11:35:53;;;;;;;31.70;18.13;;;7.00;99.90;;;;;;4897882;29;20679;-74
2022/01/24 11:38:28;;;;;;;37.30;19.60;;;7.00;99.90;;;;;;4894442;29;20556;-74
2022/01/24 11:41:01;;;;;;;33.10;17.10;;;7.00;99.90;;;;;;4901010;29;20815;-74
2022/01/24 11:43:36;;;;;;;32.27;19.50;;;7.00;99.90;;;;;;4902685;29;20453;-75
2022/01/24 11:46:07;;;;;;;34.53;18.70;;;7.00;99.90;;;;;;4889920;29;20571;-75
2022/01/24 11:48:37;;;;;;;32.63;18.47;;;7.00;99.90;;;;;;4876545;29;20493;-74
2022/01/24 11:51:11;;;;;;;33.30;20.00;;;7.00;99.90;;;;;;4900566;29;20628;-74
2022/01/24 11:53:43;;;;;;;33.83;18.60;;;7.00;99.90;;;;;;4895085;29;20464;-74
2022/01/24 11:56:35;;;;;;;36.67;20.60;;;7.00;99.90;;;;;;4900388;29;20493;-74
2022/01/24 11:59:22;;;;;;;32.53;19.27;;;7.10;99.90;;;;;;4894205;29;20560;-74
2022/01/24 12:02:05;;;;;;;34.77;20.63;;;7.10;99.90;;;;;;4894555;29;20480;-75
2022/01/24 12:05:00;;;;;;;36.20;21.60;;;7.10;99.90;;;;;;4897004;29;20446;-74
2022/01/24 12:07:39;;;;;;;38.53;21.10;;;7.10;99.90;;;;;;4899800;29;20976;-74
2022/01/24 12:10:42;;;;;;;38.13;21.10;;;7.10;99.90;;;;;;4934547;29;20513;-74
2022/01/24 12:13:27;;;;;;;43.97;22.83;;;7.10;99.90;;;;;;4872506;29;20483;-74
2022/01/24 12:15:54;;;;;;;38.30;21.47;;;7.10;99.90;;;;;;4897207;29;20926;-75
2022/01/24 12:18:26;;;;;;;41.60;21.83;;;7.10;99.90;;;;;;4904325;29;20503;-75
2022/01/24 12:20:55;;;;;;;37.47;22.80;;;7.00;99.90;;;;;;4901668;29;20464;-74
2022/01/24 12:23:24;;;;;;;42.23;22.43;;;7.00;99.90;;;;;;4892364;29;21926;-73
2022/01/24 12:25:58;;;;;;;37.37;21.70;;;7.00;99.90;;;;;;4885505;29;21006;-74
2022/01/24 12:28:26;;;;;;;37.43;22.30;;;7.00;99.90;;;;;;4889444;29;20461;-75
2022/01/24 12:31:08;;;;;;;41.33;23.47;;;7.00;99.90;;;;;;4900285;29;20473;-75
2022/01/24 12:33:36;;;;;;;40.37;22.60;;;7.00;99.90;;;;;;4899534;29;20516;-75
2022/01/24 12:36:05;;;;;;;43.87;24.00;;;7.00;99.90;;;;;;4889603;29;20581;-74
2022/01/24 12:39:21;;;;;;;42.20;23.33;;;7.00;99.90;;;;;;4898409;29;20532;-74
2022/01/24 12:41:55;;;;;;;39.37;22.50;;;7.00;99.90;;;;;;4873932;29;20500;-74
2022/01/24 12:47:06;;;;;;;36.50;22.80;;;7.00;99.90;;;;;;4899714;29;21238;-75
2022/01/24 12:49:32;;;;;;;38.53;22.07;;;6.90;99.90;;;;;;4906436;29;20456;-74
2022/01/24 12:52:04;;;;;;;35.50;21.23;;;6.90;99.90;;;;;;4893880;29;20496;-75
2022/01/24 12:54:32;;;;;;;37.27;20.93;;;6.90;99.90;;;;;;4887639;29;20482;-75
2022/01/24 12:57:05;;;;;;;37.00;20.37;;;6.90;99.90;;;;;;4913958;29;20495;-75
2022/01/24 12:59:31;;;;;;;35.50;21.27;;;6.80;99.90;;;;;;4913071;29;20990;-75
2022/01/24 13:02:00;;;;;;;36.30;20.50;;;6.80;99.90;;;;;;4900189;29;20465;-75
2022/01/24 13:04:35;;;;;;;33.37;19.67;;;6.80;99.90;;;;;;4891772;29;20855;-75
2022/01/24 13:07:01;;;;;;;30.97;18.73;;;6.80;99.90;;;;;;4896077;29;20882;-76
2022/01/24 13:09:27;;;;;;;27.87;18.60;;;6.80;99.90;;;;;;4899554;29;20560;-75
2022/01/24 13:11:54;;;;;;;27.63;17.10;;;6.80;99.90;;;;;;4898418;29;20469;-76
2022/01/24 13:14:27;;;;;;;27.43;16.00;;;6.70;99.90;;;;;;4895166;29;20448;-75
2022/01/24 13:25:23;;;;;;;27.53;17.73;;;6.80;99.90;;;;;;4899834;29;20588;-75
2022/01/24 13:28:01;;;;;;;29.77;18.67;;;6.70;99.90;;;;;;4894210;29;20587;-75
2022/01/24 13:30:35;;;;;;;24.10;15.07;;;6.80;99.90;;;;;;4897477;29;20611;-74
2022/01/24 13:33:06;;;;;;;22.33;15.37;;;6.80;99.90;;;;;;4898255;29;20445;-75
2022/01/24 13:35:33;;;;;;;23.87;14.67;;;6.80;99.90;;;;;;4908884;29;20864;-74
2022/01/24 13:38:00;;;;;;;26.57;16.37;;;6.80;99.90;;;;;;4895890;29;20513;-75
2022/01/24 13:40:38;;;;;;;27.90;15.93;;;6.80;99.90;;;;;;4899689;29;20551;-74
2022/01/24 13:43:05;;;;;;;27.40;17.23;;;6.80;99.90;;;;;;4893365;29;20445;-75
2022/01/24 13:45:39;;;;;;;23.67;15.63;;;6.90;99.90;;;;;;4866353;29;20700;-75
2022/01/24 13:48:14;;;;;;;24.90;15.60;;;6.80;99.90;;;;;;4895427;29;20473;-75
2022/01/24 13:50:48;;;;;;;26.17;16.00;;;6.80;99.90;;;;;;4897283;29;20499;-75
2022/01/24 13:53:27;;;;;;;27.70;17.83;;;6.80;99.90;;;;;;4896164;29;20598;-75
2022/01/24 13:55:52;;;;;;;25.47;16.70;;;6.80;99.90;;;;;;4895741;29;20469;-74
2022/01/24 13:58:27;;;;;;;27.30;15.53;;;6.80;99.90;;;;;;4894105;29;20525;-75
2022/01/24 14:00:58;;;;;;;26.17;16.20;;;6.80;99.90;;;;;;4901922;29;20324;-74
2022/01/24 14:03:23;;;;;;;29.00;17.10;;;6.80;99.90;;;;;;4894418;29;20563;-75
2022/01/24 14:06:09;;;;;;;29.40;17.70;;;6.70;99.90;;;;;;4890943;29;20496;-75
2022/01/24 14:08:34;;;;;;;31.17;17.30;;;6.70;99.90;;;;;;4899174;29;20233;-75
2022/01/24 14:11:14;;;;;;;31.43;18.90;;;6.70;99.90;;;;;;4898552;29;20485;-74
2022/01/24 14:13:46;;;;;;;30.10;18.77;;;6.60;99.90;;;;;;4896430;29;20578;-77
2022/01/24 14:16:32;;;;;;;28.80;18.73;;;6.60;99.90;;;;;;4903837;29;20527;-74
2022/01/24 14:19:03;;;;;;;35.27;19.20;;;6.50;99.90;;;;;;4902437;29;20464;-75
2022/01/24 14:21:28;;;;;;;33.40;19.33;;;6.50;99.90;;;;;;4911004;29;21258;-74
2022/01/24 14:23:55;;;;;;;29.47;18.67;;;6.60;99.90;;;;;;4895572;29;20512;-75
2022/01/24 14:26:24;;;;;;;35.80;21.30;;;6.60;99.90;;;;;;4903682;29;20208;-75
2022/01/24 14:29:08;;;;;;;30.90;18.10;;;6.60;99.90;;;;;;4923700;29;20793;-74
2022/01/24 14:31:33;;;;;;;26.30;16.87;;;6.60;99.90;;;;;;4913265;29;20478;-75
2022/01/24 14:34:03;;;;;;;29.50;17.93;;;6.60;99.90;;;;;;4888892;29;20444;-74
2022/01/24 14:36:28;;;;;;;28.67;17.57;;;6.60;99.90;;;;;;4902993;29;20205;-74
2022/01/24 14:38:58;;;;;;;29.13;17.60;;;6.60;99.90;;;;;;4901835;29;20517;-74
2022/01/24 14:41:26;;;;;;;29.80;16.57;;;6.60;99.90;;;;;;4902324;29;20506;-74
2022/01/24 14:46:38;;;;;;;26.63;15.30;;;6.60;99.90;;;;;;4901406;29;21037;-74
2022/01/24 14:49:09;;;;;;;26.20;16.37;;;6.60;99.90;;;;;;4895762;29;20484;-75
2022/01/24 14:51:37;;;;;;;26.03;16.00;;;6.50;99.90;;;;;;4893464;29;20491;-75